Time;durP1;ratioP1;P1;durP2;ratioP2;P2;SDS_P1;SDS_P2;PMS_P1;PMS_P2;Temp;Humidity;BMP_temperature;BMP_pressure;BME280_temperature;BME280_humidity;BME280_pressure;Samples;Min_cycle;Max_cycle;Signal;HPM_P1;HPM_P2
2022/09/25 00:01:22;;;;;;;0.35;0.35;;;;;;;5.81;64.29;93799.63;5092527;28;20027;-35
2022/09/25 00:03:48;;;;;;;0.65;0.65;;;;;;;5.45;64.32;93777.00;5091765;28;20035;-35
2022/09/25 00:06:18;;;;;;;0.75;0.75;;;;;;;5.72;65.17;93803.44;5093308;28;20601;-35
2022/09/25 00:08:44;;;;;;;0.30;0.30;;;;;;;5.79;64.43;93796.66;5090640;28;20051;-35
2022/09/25 00:11:21;;;;;;;2.17;1.75;;;;;;;5.48;65.26;93799.88;5090303;28;20587;-35
2022/09/25 00:13:46;;;;;;;2.58;2.47;;;;;;;5.55;65.04;93800.06;5091237;28;20030;-35
2022/09/25 00:16:15;;;;;;;1.63;1.50;;;;;;;5.73;65.03;93804.94;5091929;28;20020;-35
2022/09/25 00:21:29;;;;;;;2.72;2.53;;;;;;;5.57;64.96;93807.75;5089739;28;20042;-35
2022/09/25 00:23:55;;;;;;;1.35;1.30;;;;;;;5.21;65.89;93802.25;5089261;28;20042;-35
2022/09/25 00:26:20;;;;;;;1.20;1.15;;;;;;;5.19;66.26;93802.03;5091414;28;20621;-36
2022/09/25 00:28:46;;;;;;;2.55;1.60;;;;;;;5.22;65.67;93794.78;5090315;28;20032;-36
2022/09/25 00:31:18;;;;;;;3.00;1.70;;;;;;;5.32;65.80;93795.97;5091875;28;20507;-35
2022/09/25 00:33:43;;;;;;;1.15;1.05;;;;;;;5.13;66.06;93789.63;5071156;28;20456;-35
2022/09/25 00:36:09;;;;;;;3.42;2.45;;;;;;;5.21;66.08;93810.47;5090072;28;20027;-35
2022/09/25 00:38:36;;;;;;;0.68;0.68;;;;;;;5.17;65.89;93801.78;5092368;28;20024;-35
2022/09/25 00:41:04;;;;;;;1.73;1.67;;;;;;;5.24;65.84;93803.25;5092565;28;20045;-35
2022/09/25 00:43:43;;;;;;;1.05;1.05;;;;;;;5.20;66.07;93797.28;5092522;28;20028;-35
2022/09/25 00:46:18;;;;;;;;;;;;;;;5.14;66.16;93793.81;5092634;28;20020;-35
2022/09/25 00:48:51;;;;;;;0.75;0.75;;;;;;;5.13;65.75;93792.34;5091492;28;19912;-35
2022/09/25 00:51:19;;;;;;;1.20;1.20;;;;;;;4.98;66.50;93791.94;5091855;28;20506;-35
2022/09/25 00:53:45;;;;;;;1.43;1.43;;;;;;;5.05;65.67;93783.91;5092010;28;20020;-35
2022/09/25 00:56:11;;;;;;;0.70;0.70;;;;;;;4.97;65.95;93776.75;5092398;28;20020;-35
2022/09/25 00:58:38;;;;;;;1.27;1.08;;;;;;;4.92;65.97;93777.50;5073603;28;20105;-35
2022/09/25 01:01:04;;;;;;;0.80;0.80;;;;;;;5.02;65.50;93776.72;5092282;28;20024;-36
2022/09/25 01:03:29;;;;;;;1.55;1.52;;;;;;;4.80;66.20;93771.34;5092593;28;20030;-36
2022/09/25 01:05:59;;;;;;;2.03;1.92;;;;;;;5.01;65.59;93767.03;5073985;28;20020;-36
2022/09/25 01:08:26;;;;;;;1.70;1.50;;;;;;;4.96;66.21;93769.78;5091916;28;20034;-35
2022/09/25 01:10:52;;;;;;;3.20;1.42;;;;;;;4.95;65.80;93774.53;5092123;28;20103;-36
2022/09/25 01:13:18;;;;;;;1.35;1.35;;;;;;;4.97;65.91;93774.75;5092233;28;20472;-36
2022/09/25 01:15:52;;;;;;;0.75;0.75;;;;;;;5.00;65.44;93767.53;5073521;28;20043;-36
2022/09/25 01:18:27;;;;;;;1.08;1.08;;;;;;;4.85;66.19;93767.09;5073514;28;20055;-35
2022/09/25 01:21:15;;;;;;;2.65;1.38;;;;;;;4.70;66.82;93775.59;5091662;28;20679;-35
2022/09/25 01:23:59;;;;;;;3.28;2.67;;;;;;;4.56;67.18;93765.72;5089701;28;20059;-35
2022/09/25 01:26:53;;;;;;;1.42;1.33;;;;;;;4.34;66.68;93761.06;5090100;28;20061;-34
2022/09/25 01:29:26;;;;;;;1.38;1.33;;;;;;;4.53;66.85;93769.44;5091390;28;20385;-35
2022/09/25 01:32:06;;;;;;;0.85;0.85;;;;;;;4.37;66.74;93779.19;5091284;28;20103;-35
2022/09/25 01:34:48;;;;;;;0.73;0.73;;;;;;;4.60;66.09;93777.88;5061523;28;20392;-36
2022/09/25 01:37:26;;;;;;;0.77;0.77;;;;;;;4.61;65.75;93776.63;5091373;28;20438;-35
2022/09/25 01:40:10;;;;;;;0.82;0.82;;;;;;;4.56;65.74;93779.38;5078807;28;20059;-36
2022/09/25 01:42:51;;;;;;;0.40;0.40;;;;;;;4.53;65.17;93770.19;5084964;28;20021;-36
2022/09/25 01:45:33;;;;;;;0.45;0.45;;;;;;;4.40;66.25;93766.50;5088323;28;20024;-36
2022/09/25 01:48:01;;;;;;;4.30;2.17;;;;;;;4.54;65.75;93771.69;5089608;28;20024;-36
2022/09/25 01:50:50;;;;;;;1.05;1.05;;;;;;;4.61;65.40;93768.41;5073101;28;20020;-36
2022/09/25 01:53:22;;;;;;;0.95;0.95;;;;;;;4.46;65.46;93772.72;5061791;28;20427;-36
2022/09/25 01:55:53;;;;;;;0.88;0.88;;;;;;;4.22;66.02;93765.03;5062470;28;20024;-36
2022/09/25 01:58:24;;;;;;;1.33;1.02;;;;;;;4.15;66.71;93773.00;5070631;28;20036;-36
2022/09/25 02:00:54;;;;;;;1.73;1.60;;;;;;;4.18;67.10;93766.56;5072077;28;20027;-36
2022/09/25 02:03:29;;;;;;;2.60;2.50;;;;;;;4.28;66.57;93765.78;5091302;28;20031;-36
2022/09/25 02:05:59;;;;;;;9.27;1.77;;;;;;;4.21;66.49;93762.81;5073296;28;20028;-35
2022/09/25 02:08:35;;;;;;;1.08;1.08;;;;;;;4.16;66.43;93764.31;5070811;28;20028;-35
2022/09/25 02:11:04;;;;;;;1.00;1.00;;;;;;;4.11;66.62;93770.53;5071929;28;20776;-35
2022/09/25 02:13:43;;;;;;;0.70;0.70;;;;;;;4.18;65.68;93775.47;5073109;28;20445;-35
2022/09/25 02:16:12;;;;;;;1.33;1.00;;;;;;;3.98;66.14;93751.19;5072634;28;20031;-35
2022/09/25 02:21:43;;;;;;;1.20;0.73;;;;;;;4.09;65.47;93778.50;5089994;28;20120;-35
2022/09/25 02:24:32;;;;;;;1.92;1.02;;;;;;;3.90;66.39;93780.22;5090237;28;20024;-35
2022/09/25 02:26:57;;;;;;;0.40;0.40;;;;;;;3.88;66.45;93771.78;5088570;28;20036;-35
2022/09/25 02:29:23;;;;;;;1.35;0.68;;;;;;;3.75;67.00;93757.91;5071811;28;20039;-35
2022/09/25 02:31:58;;;;;;;0.85;0.85;;;;;;;3.93;66.71;93762.09;5090361;28;20032;-35
2022/09/25 02:34:24;;;;;;;0.40;0.40;;;;;;;3.72;66.60;93745.25;5070976;28;20101;-35
2022/09/25 02:36:49;;;;;;;0.82;0.82;;;;;;;3.92;66.18;93752.44;5090584;28;20084;-34
2022/09/25 02:39:18;;;;;;;1.88;1.75;;;;;;;3.74;66.13;93746.25;5089248;28;20503;-35
2022/09/25 02:42:07;;;;;;;1.43;1.43;;;;;;;3.89;66.40;93745.97;5069017;28;20020;-35
2022/09/25 02:45:15;;;;;;;1.35;1.05;;;;;;;4.01;66.13;93744.72;5091018;28;20426;-35
2022/09/25 02:48:02;;;;;;;1.97;1.87;;;;;;;3.94;66.36;93747.97;5079485;28;20058;-35
2022/09/25 02:50:53;;;;;;;0.55;0.55;;;;;;;3.97;67.02;93760.63;5084395;28;20403;-35
2022/09/25 02:53:41;;;;;;;2.65;2.15;;;;;;;3.87;67.21;93753.19;5030288;28;20168;-35
2022/09/25 02:56:27;;;;;;;0.98;0.98;;;;;;;3.80;67.22;93759.88;5072085;28;20039;-35
2022/09/25 02:58:56;;;;;;;1.40;1.40;;;;;;;3.73;67.86;93755.66;5090043;28;20038;-35
2022/09/25 03:01:24;;;;;;;1.98;1.88;;;;;;;3.27;67.95;93732.84;5071877;28;20020;-35
2022/09/25 03:03:52;;;;;;;0.93;0.93;;;;;;;3.51;67.89;93763.13;5071875;28;20119;-35
2022/09/25 03:06:17;;;;;;;1.15;0.80;;;;;;;3.60;68.09;93771.03;5071796;28;20572;-35
2022/09/25 03:08:51;;;;;;;0.35;0.35;;;;;;;3.79;67.36;93755.66;5069667;28;20016;-35
2022/09/25 03:11:20;;;;;;;0.50;0.50;;;;;;;3.59;68.49;93743.03;5085807;28;20061;-35
2022/09/25 03:13:57;;;;;;;4.30;1.00;;;;;;;3.65;67.98;93746.50;5090038;28;20376;-35
2022/09/25 03:16:40;;;;;;;2.42;2.25;;;;;;;3.61;68.47;93748.72;5086931;28;20062;-35
2022/09/25 03:19:06;;;;;;;0.50;0.50;;;;;;;3.62;67.53;93746.72;5069005;28;20032;-35
2022/09/25 03:21:32;;;;;;;2.25;2.08;;;;;;;3.57;67.87;93744.75;5089516;28;20031;-35
2022/09/25 03:23:58;;;;;;;5.70;2.15;;;;;;;3.63;67.49;93753.69;5089878;28;20031;-35
2022/09/25 03:26:24;;;;;;;0.85;0.85;;;;;;;3.49;67.20;93732.81;5071369;28;20119;-35
2022/09/25 03:28:51;;;;;;;1.30;1.15;;;;;;;3.55;66.96;93749.97;5090083;28;20023;-35
2022/09/25 03:31:16;;;;;;;1.10;1.05;;;;;;;3.59;67.12;93750.47;5089438;28;20024;-34
2022/09/25 03:33:43;;;;;;;7.47;1.77;;;;;;;3.56;68.13;93754.19;5088739;28;20032;-35
2022/09/25 03:36:22;;;;;;;2.35;2.20;;;;;;;3.29;69.12;93757.63;5089611;28;20026;-35
2022/09/25 03:38:50;;;;;;;2.05;1.90;;;;;;;3.53;67.91;93747.00;5089593;28;20028;-35
2022/09/25 03:41:19;;;;;;;1.17;0.93;;;;;;;3.54;68.02;93748.47;5087516;28;20012;-35
2022/09/25 03:43:50;;;;;;;0.45;0.45;;;;;;;3.54;67.80;93743.75;5089612;28;20052;-35
2022/09/25 03:46:17;;;;;;;1.73;1.63;;;;;;;3.57;67.97;93742.03;5089134;28;20408;-35
2022/09/25 03:48:43;;;;;;;0.93;0.93;;;;;;;3.55;68.23;93733.59;5088837;28;20051;-35
2022/09/25 03:51:08;;;;;;;3.80;2.17;;;;;;;3.33;69.04;93739.78;5089340;28;20412;-36
2022/09/25 03:53:34;;;;;;;0.45;0.45;;;;;;;3.31;69.14;93749.69;5070758;28;20032;-36
2022/09/25 03:56:05;;;;;;;1.80;1.08;;;;;;;3.45;69.06;93745.97;5088709;28;20020;-35
2022/09/25 03:58:32;;;;;;;0.65;0.65;;;;;;;3.29;68.61;93735.81;5089311;28;20024;-35
2022/09/25 04:00:57;;;;;;;3.35;1.65;;;;;;;3.65;68.15;93749.22;5088937;28;20023;-35
2022/09/25 04:03:26;;;;;;;1.95;1.35;;;;;;;3.72;67.93;93747.97;5089287;28;20031;-35
2022/09/25 04:05:52;;;;;;;1.08;0.98;;;;;;;3.73;67.53;93752.19;5071747;28;20024;-35
2022/09/25 04:08:17;;;;;;;1.05;1.02;;;;;;;3.74;67.30;93753.69;5088416;28;20024;-35
2022/09/25 04:10:43;;;;;;;5.60;3.15;;;;;;;3.82;67.22;93746.47;5089487;28;20089;-35
2022/09/25 04:13:11;;;;;;;1.40;1.35;;;;;;;3.69;67.85;93740.78;5089137;28;20407;-35
2022/09/25 04:15:39;;;;;;;1.05;1.05;;;;;;;3.54;68.03;93743.00;5086668;28;20016;-35
2022/09/25 04:18:05;;;;;;;1.45;1.35;;;;;;;3.44;68.73;93747.22;5088479;28;20051;-35
2022/09/25 04:20:30;;;;;;;3.15;2.85;;;;;;;3.46;68.32;93750.22;5086944;28;20062;-35
2022/09/25 04:22:56;;;;;;;2.38;1.75;;;;;;;3.59;68.23;93745.75;5089136;28;20028;-35
2022/09/25 04:25:24;;;;;;;0.60;0.60;;;;;;;3.50;67.59;93753.44;5088369;28;20016;-35
2022/09/25 04:27:54;;;;;;;3.03;2.83;;;;;;;3.50;67.40;93759.66;5088314;28;20036;-34
2022/09/25 04:30:24;;;;;;;0.60;0.60;;;;;;;3.52;67.57;93759.88;5088994;28;20380;-35
2022/09/25 04:35:34;;;;;;;5.80;1.50;;;;;;;3.21;69.08;93751.16;5086251;28;20510;-35
2022/09/25 04:37:59;;;;;;;0.63;0.63;;;;;;;3.41;69.62;93765.34;5091571;28;20031;-35
2022/09/25 04:40:26;;;;;;;1.10;1.10;;;;;;;3.45;69.36;93762.34;5091493;28;20069;-35
2022/09/25 04:42:59;;;;;;;2.22;0.60;;;;;;;3.51;69.83;93760.41;5090280;28;20019;-35
2022/09/25 04:45:26;;;;;;;0.63;0.63;;;;;;;3.58;68.37;93759.88;5087923;28;20031;-35
2022/09/25 04:47:53;;;;;;;0.65;0.65;;;;;;;3.52;68.73;93765.34;5089065;28;20095;-35
2022/09/25 04:50:19;;;;;;;1.13;1.13;;;;;;;3.54;67.87;93773.78;5090197;28;20020;-35
2022/09/25 04:52:45;;;;;;;0.38;0.38;;;;;;;3.31;68.42;93779.72;5089729;28;20024;-35
2022/09/25 04:55:11;;;;;;;1.73;1.65;;;;;;;3.55;67.95;93778.00;5090663;28;20401;-35
2022/09/25 04:57:36;;;;;;;2.17;1.98;;;;;;;3.42;68.44;93777.00;5091164;28;20411;-35
2022/09/25 05:00:04;;;;;;;2.05;1.95;;;;;;;3.50;68.71;93780.72;5092004;28;20020;-35
2022/09/25 05:02:29;;;;;;;8.15;1.75;;;;;;;3.48;68.88;93781.22;5092187;28;20656;-35
2022/09/25 05:04:55;;;;;;;3.38;3.17;;;;;;;3.54;68.26;93778.50;5091599;28;20084;-35
2022/09/25 05:07:20;;;;;;;3.83;3.40;;;;;;;3.47;69.05;93768.06;5091100;28;20049;-35
2022/09/25 05:09:45;;;;;;;2.10;2.00;;;;;;;3.56;69.21;93779.50;5091683;28;20012;-35
2022/09/25 05:12:11;;;;;;;2.70;2.58;;;;;;;3.61;69.01;93778.75;5090691;28;20024;-35
2022/09/25 05:14:39;;;;;;;2.60;2.33;;;;;;;3.59;69.17;93781.25;5086440;28;20067;-35
2022/09/25 05:17:05;;;;;;;2.40;1.63;;;;;;;3.67;69.21;93789.69;5088397;28;20031;-35
2022/09/25 05:19:31;;;;;;;4.63;4.22;;;;;;;3.62;69.62;93784.94;5090439;28;20032;-35
2022/09/25 05:21:57;;;;;;;2.50;2.40;;;;;;;3.68;69.60;93791.19;5091086;28;20473;-35
2022/09/25 05:24:22;;;;;;;2.05;1.98;;;;;;;3.79;69.92;93791.91;5087736;28;20496;-35
2022/09/25 05:26:47;;;;;;;2.00;1.95;;;;;;;3.96;69.24;93785.72;5086479;28;20033;-35
2022/09/25 05:29:13;;;;;;;3.42;2.72;;;;;;;3.99;69.01;93790.91;5090555;28;20024;-35
2022/09/25 05:31:38;;;;;;;4.97;4.57;;;;;;;4.09;69.25;93794.16;5091693;28;20024;-35
2022/09/25 05:34:04;;;;;;;3.70;2.25;;;;;;;4.22;68.91;93788.91;5092172;28;20024;-35
2022/09/25 05:36:29;;;;;;;3.80;3.55;;;;;;;4.31;69.90;93792.09;5090321;28;20024;-35
2022/09/25 05:38:55;;;;;;;2.25;2.13;;;;;;;4.26;70.23;93787.41;5091397;28;20036;-35
2022/09/25 05:41:20;;;;;;;4.03;3.67;;;;;;;4.51;71.34;93783.63;5089481;28;20026;-35
2022/09/25 05:43:46;;;;;;;3.53;3.22;;;;;;;4.80;70.89;93781.53;5086559;28;20027;-35
2022/09/25 05:46:12;;;;;;;12.35;2.92;;;;;;;4.81;71.00;93758.44;5087125;28;20043;-35
2022/09/25 05:48:38;;;;;;;2.75;2.55;;;;;;;5.34;70.19;93768.84;5089068;28;20732;-35
2022/09/25 05:51:04;;;;;;;2.67;2.58;;;;;;;5.58;69.56;93744.28;5087993;28;20106;-35
2022/09/25 05:53:29;;;;;;;3.28;3.08;;;;;;;6.17;69.22;93759.28;5089634;28;20024;-36
2022/09/25 05:56:00;;;;;;;3.75;3.45;;;;;;;6.37;68.51;93772.53;5088492;28;20051;-36
2022/09/25 05:58:27;;;;;;;2.28;2.17;;;;;;;6.49;67.64;93762.94;5052760;28;20035;-36
2022/09/25 06:00:53;;;;;;;1.80;1.70;;;;;;;6.63;67.34;93764.53;5087492;28;20054;-35
2022/09/25 06:03:19;;;;;;;4.50;3.67;;;;;;;6.64;67.43;93757.78;5088181;28;20016;-35
2022/09/25 06:05:45;;;;;;;2.85;2.65;;;;;;;6.84;67.29;93755.28;5084731;28;20059;-35
2022/09/25 06:08:12;;;;;;;4.03;3.67;;;;;;;7.05;67.09;93752.06;5084650;28;20414;-35
2022/09/25 06:10:38;;;;;;;3.00;2.80;;;;;;;7.24;66.48;93748.06;5087499;28;20028;-35
2022/09/25 06:13:04;;;;;;;1.95;1.85;;;;;;;7.57;66.58;93752.34;5087092;28;20028;-35
2022/09/25 06:15:36;;;;;;;4.13;3.78;;;;;;;7.97;65.73;93756.72;5087044;28;20043;-35
2022/09/25 06:18:05;;;;;;;2.95;2.75;;;;;;;8.44;64.10;93754.22;5081918;28;20024;-35
2022/09/25 06:20:31;;;;;;;;;;;;;;;8.99;63.29;93757.91;5087642;28;20032;-35
2022/09/25 06:22:57;;;;;;;3.58;3.38;;;;;;;9.42;61.72;93744.47;5088066;28;19913;-35
2022/09/25 06:25:25;;;;;;;3.22;2.95;;;;;;;10.19;60.78;93764.06;5088431;28;20027;-36
2022/09/25 06:27:55;;;;;;;3.92;3.63;;;;;;;10.76;58.87;93759.34;5088480;28;20065;-36
2022/09/25 06:30:22;;;;;;;3.50;3.20;;;;;;;11.37;57.41;93750.09;5086337;28;20032;-35
2022/09/25 06:32:50;;;;;;;2.15;1.98;;;;;;;12.21;55.45;93750.34;5085311;28;20024;-36
2022/09/25 06:35:16;;;;;;;3.15;1.58;;;;;;;12.91;54.15;93740.88;5084453;28;20172;-36
2022/09/25 06:37:43;;;;;;;0.68;0.68;;;;;;;13.52;51.99;93744.25;5088158;28;20103;-36
2022/09/25 06:40:09;;;;;;;0.22;0.22;;;;;;;13.97;49.56;93748.84;5087890;28;20023;-36
2022/09/25 06:42:35;;;;;;;0.50;0.50;;;;;;;14.82;48.31;93751.22;5088654;28;20023;-34
2022/09/25 06:45:00;;;;;;;0.65;0.65;;;;;;;15.76;45.43;93749.16;5088032;28;20094;-34
2022/09/25 06:47:26;;;;;;;1.15;0.80;;;;;;;16.38;43.57;93747.75;5087478;28;20033;-34
2022/09/25 06:49:51;;;;;;;0.52;0.40;;;;;;;16.97;42.13;93725.81;5087085;28;20420;-34
2022/09/25 06:52:17;;;;;;;0.80;0.80;;;;;;;17.67;40.36;93738.66;5087518;28;20024;-34
2022/09/25 06:54:42;;;;;;;1.02;1.00;;;;;;;18.21;39.08;93708.31;5087103;28;20030;-34
2022/09/25 06:57:09;;;;;;;0.32;0.32;;;;;;;19.27;38.08;93742.88;5085516;28;20035;-34
2022/09/25 06:59:35;;;;;;;3.95;1.85;;;;;;;19.96;36.40;93741.78;5086881;28;20062;-34
2022/09/25 07:03:43;;;;;;;2.72;1.42;;;;;;;20.35;35.67;93726.81;5083397;28;20026;-35
2022/09/25 07:04:50;;;;;;;1.13;0.95;;;;;;;20.76;34.24;93726.47;5082405;28;20039;-34
2022/09/25 07:07:19;;;;;;;1.40;1.30;;;;;;;21.61;33.74;93735.78;5084719;28;20020;-34
2022/09/25 07:09:47;;;;;;;0.65;0.60;;;;;;;22.39;32.57;93738.81;5087780;28;20028;-34
2022/09/25 07:12:13;;;;;;;1.13;1.02;;;;;;;22.72;30.94;93738.50;5087238;28;20067;-34
2022/09/25 07:14:40;;;;;;;1.38;0.77;;;;;;;23.32;30.16;93748.03;5086405;28;20052;-34
2022/09/25 07:17:07;;;;;;;1.00;0.93;;;;;;;23.79;29.64;93741.97;5087775;28;20574;-35
2022/09/25 07:19:32;;;;;;;0.17;0.17;;;;;;;24.37;28.82;93742.03;5088359;28;20032;-34
2022/09/25 07:21:58;;;;;;;0.35;0.35;;;;;;;24.89;27.41;93740.22;5087559;28;20034;-34
2022/09/25 07:24:24;;;;;;;0.40;0.40;;;;;;;25.08;27.88;93736.88;5086798;28;20024;-34
2022/09/25 07:26:50;;;;;;;0.75;0.75;;;;;;;25.70;26.78;93733.97;5083970;28;20533;-34
2022/09/25 07:29:16;;;;;;;0.47;0.47;;;;;;;26.18;26.14;93726.78;5085774;28;20025;-34
2022/09/25 07:31:42;;;;;;;0.43;0.43;;;;;;;26.15;25.30;93728.06;5086507;28;20089;-34
2022/09/25 07:34:11;;;;;;;1.00;0.98;;;;;;;25.67;25.04;93726.03;5087669;28;20058;-34
2022/09/25 07:36:37;;;;;;;0.52;0.38;;;;;;;24.71;24.56;93723.88;5089056;28;20031;-35
2022/09/25 07:39:03;;;;;;;0.10;0.10;;;;;;;24.20;25.91;93727.78;5089470;28;20031;-34
2022/09/25 07:41:29;;;;;;;0.73;0.73;;;;;;;24.91;24.68;93731.84;5071582;28;20102;-34
2022/09/25 07:43:56;;;;;;;0.20;0.20;;;;;;;25.26;23.95;93738.38;5089874;28;20024;-34
2022/09/25 07:46:22;;;;;;;0.50;0.50;;;;;;;25.98;23.93;93737.97;5089589;28;20012;-35
2022/09/25 07:48:49;;;;;;;0.20;0.20;;;;;;;25.32;22.71;93727.34;5088175;28;20032;-35
2022/09/25 07:51:14;;;;;;;0.28;0.17;;;;;;;25.40;24.07;93732.63;5085025;28;20046;-34
2022/09/25 07:53:41;;;;;;;0.20;0.20;;;;;;;25.39;22.87;93725.50;5086369;28;20098;-34
2022/09/25 07:56:08;;;;;;;0.13;0.13;;;;;;;25.67;22.38;93728.84;5087042;28;20035;-34
2022/09/25 07:58:36;;;;;;;0.90;0.43;;;;;;;26.54;22.86;93719.72;5084881;28;20392;-34
2022/09/25 08:01:04;;;;;;;0.25;0.25;;;;;;;26.63;22.56;93721.50;5086900;28;20050;-34
2022/09/25 08:03:30;;;;;;;0.43;0.43;;;;;;;26.95;21.89;93717.09;5084098;28;20101;-34
2022/09/25 08:06:00;;;;;;;0.00;0.00;;;;;;;26.98;21.86;93712.94;5089137;28;20503;-35
2022/09/25 08:08:26;;;;;;;1.95;1.05;;;;;;;27.80;21.37;93728.69;5088732;28;20016;-35
2022/09/25 08:10:54;;;;;;;0.15;0.15;;;;;;;28.02;19.96;93709.59;5089602;28;20259;-35
2022/09/25 08:13:20;;;;;;;0.20;0.20;;;;;;;27.52;20.28;93727.69;5093302;28;20392;-35
2022/09/25 08:15:47;;;;;;;0.30;0.30;;;;;;;27.20;20.48;93721.53;5092955;28;20032;-34
2022/09/25 08:18:13;;;;;;;0.10;0.10;;;;;;;27.37;20.21;93703.78;5091281;28;20035;-34
2022/09/25 08:20:39;;;;;;;0.10;0.10;;;;;;;27.83;20.19;93693.28;5091372;28;20016;-35
2022/09/25 08:23:05;;;;;;;0.13;0.13;;;;;;;28.90;20.33;93699.59;5093242;28;20407;-35
2022/09/25 08:25:30;;;;;;;0.15;0.15;;;;;;;29.31;17.75;93688.03;5090399;28;20073;-35
2022/09/25 08:27:56;;;;;;;0.47;0.47;;;;;;;29.40;18.94;93697.50;5089524;28;20111;-35
2022/09/25 08:30:21;;;;;;;0.10;0.10;;;;;;;28.98;19.11;93694.88;5092854;28;20116;-35
2022/09/25 08:32:47;;;;;;;0.65;0.65;;;;;;;29.40;19.99;93692.53;5091768;28;20511;-35
2022/09/25 08:35:13;;;;;;;0.90;0.75;;;;;;;29.04;18.70;93697.88;5088704;28;20036;-35
2022/09/25 08:37:40;;;;;;;0.77;0.40;;;;;;;28.11;19.45;93687.88;5089654;28;20016;-35
2022/09/25 08:40:17;;;;;;;0.20;0.20;;;;;;;28.59;19.37;93683.03;5087460;28;20146;-35
2022/09/25 08:42:43;;;;;;;0.20;0.20;;;;;;;29.11;18.70;93678.88;5070172;28;20483;-35
2022/09/25 08:50:50;;;;;;;0.17;0.17;;;;;;;28.95;18.38;93684.84;5087893;28;20420;-35
2022/09/25 08:53:25;;;;;;;0.40;0.40;;;;;;;29.43;18.17;93681.94;5090448;28;20020;-35
2022/09/25 08:59:01;;;;;;;0.32;0.32;;;;;;;29.85;17.79;93672.44;5065271;28;20849;-35
2022/09/25 09:01:35;;;;;;;0.35;0.30;;;;;;;30.34;17.39;93667.97;5086263;28;20538;-35
2022/09/25 09:04:12;;;;;;;0.32;0.32;;;;;;;30.38;16.92;93671.66;5090904;28;20066;-35
2022/09/25 09:06:40;;;;;;;0.20;0.20;;;;;;;29.96;17.15;93671.31;5089603;28;20107;-35
2022/09/25 09:09:28;;;;;;;0.15;0.15;;;;;;;29.81;17.08;93672.34;5073075;28;20043;-34
2022/09/25 09:12:14;;;;;;;0.17;0.17;;;;;;;29.86;17.54;93673.91;5067242;28;20034;-41
2022/09/25 09:14:43;;;;;;;0.17;0.17;;;;;;;29.60;17.56;93669.59;5085853;28;20036;-43
2022/09/25 09:17:22;;;;;;;0.40;0.40;;;;;;;29.96;16.81;93667.72;5086813;28;20032;-42
2022/09/25 09:19:52;;;;;;;0.32;0.15;;;;;;;29.56;17.55;93663.81;5089060;28;20105;-44
2022/09/25 09:22:32;;;;;;;0.80;0.80;;;;;;;30.33;16.47;93667.25;5073404;28;20035;-42
2022/09/25 09:25:29;;;;;;;0.52;0.20;;;;;;;29.88;16.92;93676.81;5070605;28;20103;-44
2022/09/25 09:28:00;;;;;;;0.30;0.30;;;;;;;30.27;17.96;93661.38;5087011;28;20112;-43
2022/09/25 09:30:33;;;;;;;0.63;0.63;;;;;;;30.88;17.06;93651.41;5089876;28;20031;-45
2022/09/25 09:33:10;;;;;;;0.45;0.45;;;;;;;31.76;15.96;93643.91;5071216;28;20392;-50
2022/09/25 09:35:58;;;;;;;0.10;0.10;;;;;;;31.64;15.35;93655.81;5084100;28;20064;-45
2022/09/25 09:38:43;;;;;;;0.05;0.05;;;;;;;31.92;15.18;93641.34;5065094;28;20021;-44
2022/09/25 09:41:48;;;;;;;0.55;0.40;;;;;;;31.92;14.74;93642.03;5091077;28;20063;-43
2022/09/25 09:44:43;;;;;;;0.30;0.30;;;;;;;31.35;14.69;93640.28;5087718;28;20039;-43
2022/09/25 09:47:24;;;;;;;0.20;0.20;;;;;;;31.35;14.78;93642.41;5078927;28;20706;-45
2022/09/25 09:49:57;;;;;;;0.20;0.20;;;;;;;31.10;15.20;93629.78;5088698;28;20054;-43
2022/09/25 09:52:35;;;;;;;0.30;0.30;;;;;;;30.64;15.88;93643.03;5089432;28;20419;-45
2022/09/25 09:55:18;;;;;;;0.10;0.10;;;;;;;31.20;14.89;93646.38;5071825;28;20024;-45
2022/09/25 09:57:51;;;;;;;0.10;0.10;;;;;;;31.20;16.59;93643.53;5090949;28;20115;-44
2022/09/25 10:00:19;;;;;;;0.75;0.75;;;;;;;31.54;14.96;93634.91;5090967;28;20048;-43
2022/09/25 10:02:51;;;;;;;0.20;0.20;;;;;;;31.12;15.92;93643.38;5090953;28;20587;-46
2022/09/25 10:05:25;;;;;;;0.35;0.35;;;;;;;30.80;15.12;93599.91;5070906;28;20477;-43
2022/09/25 10:07:51;;;;;;;0.63;0.63;;;;;;;30.57;15.47;93642.16;5071771;28;20043;-43
2022/09/25 10:10:18;;;;;;;0.10;0.10;;;;;;;30.68;16.36;93634.56;5072217;28;20062;-47
2022/09/25 10:12:49;;;;;;;0.10;0.10;;;;;;;30.25;15.75;93637.81;5088163;28;20027;-45
2022/09/25 10:15:38;;;;;;;0.10;0.10;;;;;;;30.77;16.80;93635.47;5090971;28;20404;-45
2022/09/25 10:18:03;;;;;;;;;;;;;;;31.54;14.44;93632.06;5072332;28;20056;-35
2022/09/25 10:20:40;;;;;;;0.00;0.00;;;;;;;31.50;14.95;93620.56;5071138;28;19939;-35
2022/09/25 10:23:21;;;;;;;0.00;0.00;;;;;;;31.30;15.41;93620.88;5072684;28;20020;-35
2022/09/25 10:25:46;;;;;;;0.00;0.00;;;;;;;30.57;15.43;93616.53;5069582;28;20020;-36
2022/09/25 10:28:24;;;;;;;0.00;0.00;;;;;;;29.43;16.46;93625.78;5090312;28;20024;-35
2022/09/25 10:30:51;;;;;;;1.77;1.10;;;;;;;28.69;18.60;93609.44;5088843;28;20035;-35
2022/09/25 10:33:27;;;;;;;3.38;0.98;;;;;;;29.24;17.75;93626.66;5070606;28;20036;-35
2022/09/25 10:35:55;;;;;;;0.30;0.30;;;;;;;28.89;17.19;93624.25;5072356;28;20036;-34
2022/09/25 10:38:37;;;;;;;0.13;0.13;;;;;;;29.80;15.96;93616.78;5081658;28;20046;-35
2022/09/25 10:41:13;;;;;;;0.55;0.55;;;;;;;29.84;16.55;93614.03;5085444;28;20028;-35
2022/09/25 10:43:58;;;;;;;0.35;0.35;;;;;;;29.24;15.91;93616.03;5066570;28;20032;-36
2022/09/25 10:50:09;;;;;;;0.22;0.22;;;;;;;29.17;16.85;93616.53;5087992;28;20031;-35
2022/09/25 10:52:10;;;;;;;1.23;0.60;;;;;;;28.34;17.08;93613.34;5086563;28;20042;-34
2022/09/25 10:54:36;;;;;;;1.13;0.73;;;;;;;28.76;18.12;93613.94;5088066;28;20039;-34
2022/09/25 10:57:16;;;;;;;0.00;0.00;;;;;;;28.49;16.80;93598.91;5066121;28;20032;-34
2022/09/25 10:59:49;;;;;;;0.22;0.22;;;;;;;28.78;17.24;93602.63;5089677;28;20502;-34
2022/09/25 11:02:33;;;;;;;0.25;0.25;;;;;;;28.90;16.49;93606.53;5070352;28;20110;-34
2022/09/25 11:04:59;;;;;;;0.40;0.40;;;;;;;29.47;17.56;93591.75;5071713;28;20093;-33
2022/09/25 11:07:26;;;;;;;0.28;0.28;;;;;;;29.64;17.28;93596.44;5088230;28;20461;-34
2022/09/25 11:09:52;;;;;;;0.20;0.20;;;;;;;29.79;15.72;93598.28;5090049;28;20389;-42
2022/09/25 11:12:22;;;;;;;2.42;0.70;;;;;;;29.69;16.68;93600.84;5071589;28;20027;-42
2022/09/25 11:14:57;;;;;;;0.10;0.10;;;;;;;28.63;16.68;93597.91;5058860;28;20021;-42
2022/09/25 11:17:37;;;;;;;0.10;0.10;;;;;;;27.59;18.19;93593.22;5085011;28;20024;-42
2022/09/25 11:20:11;;;;;;;0.00;0.00;;;;;;;27.48;18.85;93589.28;5075841;28;20033;-41
2022/09/25 11:22:38;;;;;;;0.55;0.55;;;;;;;27.50;18.57;93594.31;5085116;28;20695;-42
2022/09/25 11:25:28;;;;;;;0.15;0.15;;;;;;;27.96;19.04;93598.66;5067757;28;20027;-44
2022/09/25 11:28:08;;;;;;;0.10;0.10;;;;;;;27.47;19.11;93585.00;5085181;28;20438;-42
2022/09/25 11:30:39;;;;;;;1.33;0.32;;;;;;;28.03;19.28;93580.47;5089568;28;20063;-42
2022/09/25 11:33:05;;;;;;;0.10;0.10;;;;;;;28.42;17.86;93582.34;5088738;28;20055;-42
2022/09/25 11:35:58;;;;;;;0.15;0.15;;;;;;;28.27;18.79;93577.63;5087957;28;20546;-44
2022/09/25 11:42:06;;;;;;;0.15;0.15;;;;;;;27.09;19.23;93575.19;5069794;28;20035;-42
2022/09/25 11:44:57;;;;;;;0.10;0.10;;;;;;;26.04;19.03;93567.72;5069206;28;20081;-43
2022/09/25 11:47:32;;;;;;;0.22;0.22;;;;;;;24.88;20.15;93572.13;5085420;28;20032;-42
2022/09/25 11:50:00;;;;;;;0.10;0.10;;;;;;;24.78;21.07;93578.78;5069751;28;20028;-41
2022/09/25 11:52:39;;;;;;;0.10;0.10;;;;;;;25.25;21.00;93584.31;5091260;28;20431;-42
2022/09/25 11:55:23;;;;;;;0.10;0.10;;;;;;;25.32;20.13;93576.81;5070256;28;20043;-42
2022/09/25 11:57:52;;;;;;;0.63;0.63;;;;;;;25.73;19.76;93579.94;5090172;28;20037;-42
2022/09/25 12:00:39;;;;;;;0.98;0.88;;;;;;;26.17;20.12;93573.22;5090333;28;20044;-43
2022/09/25 12:03:14;;;;;;;0.25;0.25;;;;;;;25.67;19.84;93564.81;5092486;28;20028;-43
2022/09/25 12:05:49;;;;;;;0.47;0.47;;;;;;;25.69;21.44;93559.25;5091031;28;20400;-41
2022/09/25 12:08:23;;;;;;;1.40;0.28;;;;;;;25.55;19.83;93554.47;5088785;28;20023;-42
2022/09/25 12:11:10;;;;;;;0.45;0.45;;;;;;;25.51;20.48;93548.66;5069220;28;20060;-41
2022/09/25 12:14:02;;;;;;;0.57;0.57;;;;;;;25.45;20.87;93553.34;5093369;28;20107;-41
2022/09/25 12:16:58;;;;;;;0.45;0.20;;;;;;;25.52;22.27;93552.22;5091731;28;20411;-42
2022/09/25 12:19:32;;;;;;;0.30;0.30;;;;;;;25.55;21.18;93551.66;5089330;28;20024;-42
2022/09/25 12:22:12;;;;;;;0.20;0.20;;;;;;;25.53;21.17;93557.22;5089899;28;20034;-41